Time;durP1;ratioP1;P1;durP2;ratioP2;P2;SDS_P1;SDS_P2;PMS_P1;PMS_P2;Temp;Humidity;BMP_temperature;BMP_pressure;BME280_temperature;BME280_humidity;BME280_pressure;Samples;Min_cycle;Max_cycle;Signal;HPM_P1;HPM_P2
2022/04/22 00:00:15;;;;;;;9.48;5.45;;;;;;;10.80;85.71;99770.44;8356505;28;20291;-64
2022/04/22 00:04:16;;;;;;;11.07;6.05;;;;;;;10.70;86.15;99762.44;8348866;28;20036;-63
2022/04/22 00:08:16;;;;;;;11.45;6.00;;;;;;;10.70;85.71;99758.91;8354641;28;20033;-63
2022/04/22 00:12:16;;;;;;;10.43;5.80;;;;;;;10.68;85.77;99755.50;8356455;28;20456;-63
2022/04/22 00:16:18;;;;;;;10.73;5.45;;;;;;;10.69;85.55;99739.13;8338433;28;20271;-63
2022/04/22 00:20:18;;;;;;;9.57;6.18;;;;;;;10.87;84.98;99745.31;8351566;28;20048;-63
2022/04/22 00:24:19;;;;;;;8.20;6.05;;;;;;;10.70;85.56;99742.69;8359475;28;20029;-64
2022/04/22 00:28:20;;;;;;;10.23;6.32;;;;;;;10.61;85.61;99749.03;8345030;28;20044;-64
2022/04/22 00:32:20;;;;;;;9.13;6.22;;;;;;;10.43;86.82;99746.38;8363550;28;20037;-64
2022/04/22 00:36:21;;;;;;;8.77;6.47;;;;;;;10.52;86.59;99745.41;8361553;28;20069;-64
2022/04/22 00:40:21;;;;;;;12.30;6.45;;;;;;;10.42;86.93;99739.28;8363444;28;20033;-64
2022/04/22 00:44:22;;;;;;;8.80;6.30;;;;;;;10.42;87.04;99739.28;8362560;28;20029;-64
2022/04/22 00:48:23;;;;;;;16.10;6.22;;;;;;;10.48;86.89;99737.78;8362290;28;20440;-64
2022/04/22 00:52:24;;;;;;;8.93;5.97;;;;;;;10.47;86.76;99731.56;8362997;28;20120;-64
2022/04/22 00:56:24;;;;;;;12.02;6.43;;;;;;;10.54;86.50;99713.69;8361331;28;20528;-64
2022/04/22 01:00:25;;;;;;;11.50;6.93;;;;;;;10.60;85.67;99721.16;8361871;28;20471;-64
2022/04/22 01:09:51;;;;;;;10.02;6.32;;;;;;;10.64;85.38;99719.81;8353822;28;20043;-63
2022/04/22 01:13:09;;;;;;;9.98;6.43;;;;;;;10.44;86.26;99715.66;8344830;28;20029;-63
2022/04/22 01:17:10;;;;;;;10.27;6.70;;;;;;;10.10;87.61;99712.06;8361864;28;20099;-63
2022/04/22 01:21:11;;;;;;;12.88;7.28;;;;;;;10.13;88.41;99711.75;8361587;28;20520;-63
2022/04/22 01:25:11;;;;;;;10.00;6.80;;;;;;;10.04;88.52;99709.94;8361635;28;20386;-63
2022/04/22 01:29:14;;;;;;;9.63;6.85;;;;;;;10.02;88.85;99709.25;8361923;28;20045;-63
2022/04/22 01:33:14;;;;;;;13.73;7.00;;;;;;;10.16;88.42;99711.41;8360637;28;20036;-63
2022/04/22 01:37:15;;;;;;;11.13;6.72;;;;;;;10.17;88.58;99706.84;8359980;28;20056;-63
2022/04/22 01:41:15;;;;;;;10.43;7.50;;;;;;;10.19;88.53;99703.00;8360943;28;20127;-64
2022/04/22 01:45:15;;;;;;;12.73;7.50;;;;;;;10.24;88.00;99702.53;8360488;28;20037;-64
2022/04/22 01:49:16;;;;;;;13.40;7.43;;;;;;;10.13;88.33;99703.63;8361526;28;20040;-64
2022/04/22 01:53:17;;;;;;;11.38;7.85;;;;;;;10.13;88.47;99706.34;8360285;28;20040;-64
2022/04/22 01:57:18;;;;;;;14.25;8.35;;;;;;;9.79;89.86;99703.47;8359969;28;20080;-64
2022/04/22 02:01:18;;;;;;;11.48;7.32;;;;;;;9.51;91.46;99701.00;8357387;28;20149;-64
2022/04/22 02:05:19;;;;;;;10.55;7.38;;;;;;;9.50;91.63;99696.63;8360573;28;20036;-64
2022/04/22 02:09:19;;;;;;;11.13;7.40;;;;;;;9.38;92.30;99697.84;8360853;28;20037;-64
2022/04/22 02:13:21;;;;;;;10.85;7.25;;;;;;;9.32;92.41;99696.63;8357515;28;20045;-64
2022/04/22 02:17:21;;;;;;;10.98;7.30;;;;;;;9.31;93.19;99696.78;8358695;28;20063;-64
2022/04/22 02:21:21;;;;;;;11.20;7.13;;;;;;;9.21;94.52;99694.13;8360584;28;20029;-64
2022/04/22 02:25:22;;;;;;;15.23;7.47;;;;;;;8.97;95.91;99682.25;8360284;28;20047;-64
2022/04/22 02:29:23;;;;;;;9.02;7.55;;;;;;;8.40;97.68;99687.91;8360380;28;20290;-64
2022/04/22 02:33:23;;;;;;;12.77;7.90;;;;;;;8.20;100.00;99680.84;8361107;28;20082;-64
2022/04/22 02:37:25;;;;;;;14.02;8.35;;;;;;;8.29;99.47;99680.00;8360665;28;20053;-64
2022/04/22 02:45:46;;;;;;;17.05;8.88;;;;;;;8.11;100.00;99687.13;8352832;28;20048;-64
2022/04/22 02:49:47;;;;;;;13.65;8.30;;;;;;;7.80;100.00;99684.59;8355521;28;20124;-63
2022/04/22 02:53:47;;;;;;;16.95;9.35;;;;;;;8.01;100.00;99677.22;8353832;28;20037;-63
2022/04/22 02:57:47;;;;;;;14.07;9.02;;;;;;;8.30;100.00;99674.47;8342912;28;20398;-63
2022/04/22 03:01:48;;;;;;;18.05;10.07;;;;;;;8.39;99.07;99672.75;8360213;28;20066;-64
2022/04/22 03:05:48;;;;;;;13.95;8.45;;;;;;;8.22;97.86;99663.59;8359770;28;20502;-63
2022/04/22 03:09:49;;;;;;;15.88;8.73;;;;;;;8.13;100.00;99683.28;8349110;28;20371;-63
2022/04/22 03:13:49;;;;;;;16.27;9.20;;;;;;;8.09;100.00;99671.94;8358563;28;20033;-63
2022/04/22 03:17:50;;;;;;;14.85;8.15;;;;;;;8.19;100.00;99673.75;8359450;28;20125;-64
2022/04/22 03:21:50;;;;;;;19.23;9.35;;;;;;;7.77;100.00;99658.00;8359719;28;20041;-63
2022/04/22 03:25:54;;;;;;;16.73;10.07;;;;;;;7.96;100.00;99663.34;8340858;28;20497;-64
2022/04/22 03:29:54;;;;;;;15.53;10.10;;;;;;;8.24;100.00;99676.91;8359446;28;20039;-64
2022/04/22 03:33:55;;;;;;;16.13;9.68;;;;;;;8.39;100.00;99661.97;8341173;28;20037;-63
2022/04/22 03:37:56;;;;;;;18.38;11.45;;;;;;;8.63;100.00;99673.91;8352974;28;20068;-64
2022/04/22 03:41:58;;;;;;;17.15;10.50;;;;;;;8.66;100.00;99670.06;8357915;28;20045;-64
2022/04/22 03:45:59;;;;;;;17.70;9.95;;;;;;;8.66;100.00;99657.44;8358109;28;20059;-64
2022/04/22 03:49:59;;;;;;;19.92;10.90;;;;;;;8.59;100.00;99660.88;8340504;28;20033;-64
2022/04/22 03:54:00;;;;;;;14.80;10.65;;;;;;;8.52;100.00;99654.41;8358186;28;20227;-63
2022/04/22 03:58:16;;;;;;;18.70;10.02;;;;;;;8.46;100.00;99644.22;8357171;28;20033;-63
2022/04/22 04:02:16;;;;;;;16.27;10.68;;;;;;;8.47;100.00;99652.16;8341687;28;20493;-65
2022/04/22 04:06:17;;;;;;;19.63;11.80;;;;;;;8.35;100.00;99652.50;8357225;28;20414;-64
2022/04/22 04:16:09;;;;;;;16.05;10.23;;;;;;;8.02;100.00;99646.59;8356963;28;20397;-64
2022/04/22 04:23:14;;;;;;;21.20;11.40;;;;;;;7.82;100.00;99642.28;8342446;28;20120;-64
2022/04/22 04:23:18;;;;;;;18.77;12.15;;;;;;;8.03;100.00;99636.69;8342449;28;20037;-64
2022/04/22 04:27:18;;;;;;;21.85;11.98;;;;;;;8.16;100.00;99649.81;8334266;28;20041;-64
2022/04/22 04:31:20;;;;;;;16.95;11.52;;;;;;;8.26;100.00;99631.84;8357390;28;20044;-64
2022/04/22 04:35:20;;;;;;;25.23;12.48;;;;;;;8.51;100.00;99631.16;8356069;28;20520;-64
2022/04/22 04:39:21;;;;;;;20.00;11.35;;;;;;;8.55;100.00;99630.72;8357744;28;20366;-64
2022/04/22 04:43:22;;;;;;;23.17;11.52;;;;;;;8.52;100.00;99638.22;8356775;28;20036;-64
2022/04/22 04:47:23;;;;;;;17.58;11.85;;;;;;;8.56;100.00;99645.88;8350050;28;20037;-64
2022/04/22 04:51:23;;;;;;;20.80;11.90;;;;;;;8.53;100.00;99638.09;8335103;28;20040;-64
2022/04/22 04:55:23;;;;;;;19.45;11.63;;;;;;;8.10;100.00;99632.41;8355553;28;20656;-64
2022/04/22 04:59:24;;;;;;;19.33;12.30;;;;;;;8.31;100.00;99643.00;8356606;28;20045;-64
2022/04/22 05:03:24;;;;;;;20.83;12.02;;;;;;;7.99;100.00;99633.44;8356402;28;20045;-64
2022/04/22 05:07:25;;;;;;;25.30;14.43;;;;;;;8.36;100.00;99638.03;8356465;28;20041;-64
2022/04/22 05:11:35;;;;;;;18.27;11.75;;;;;;;8.88;100.00;99640.03;8325891;28;20125;-64
2022/04/22 05:15:35;;;;;;;22.73;11.77;;;;;;;9.13;100.00;99633.88;8339455;28;20052;-64
2022/04/22 05:19:36;;;;;;;35.08;11.75;;;;;;;9.36;99.21;99635.09;8358465;28;20049;-64
2022/04/22 05:23:36;;;;;;;31.88;13.45;;;;;;;9.53;98.05;99634.28;8360602;28;20433;-64
2022/04/22 05:27:37;;;;;;;23.35;11.80;;;;;;;9.88;96.25;99628.81;8327391;28;20113;-64
2022/04/22 05:32:38;;;;;;;20.55;11.73;;;;;;;10.13;94.38;99630.72;8341858;28;20045;-65
2022/04/22 05:35:58;;;;;;;22.20;11.80;;;;;;;10.27;93.37;99632.81;8361368;28;20056;-64
2022/04/22 05:39:58;;;;;;;18.35;11.80;;;;;;;10.39;92.31;99636.94;8355066;28;20033;-64
2022/04/22 05:43:58;;;;;;;19.20;12.23;;;;;;;10.45;92.05;99639.00;8355434;28;20176;-64
2022/04/22 05:47:59;;;;;;;20.00;11.33;;;;;;;10.59;90.94;99632.13;8361872;28;20280;-64
2022/04/22 05:51:59;;;;;;;18.02;11.80;;;;;;;10.77;89.80;99620.19;8360170;28;20731;-64
2022/04/22 05:56:00;;;;;;;19.55;11.88;;;;;;;10.90;89.24;99626.00;8341543;28;20048;-64
2022/04/22 06:00:04;;;;;;;17.45;10.88;;;;;;;11.18;88.45;99618.44;8359714;28;20038;-64
2022/04/22 06:04:04;;;;;;;25.23;12.20;;;;;;;11.46;87.11;99623.41;8342767;28;20079;-64
2022/04/22 06:12:27;;;;;;;20.77;11.60;;;;;;;11.89;84.84;99620.38;8345442;28;20047;-64
2022/04/22 06:16:28;;;;;;;24.98;12.13;;;;;;;11.81;84.21;99616.84;8352082;28;20041;-64
2022/04/22 06:20:28;;;;;;;20.80;11.30;;;;;;;11.95;84.48;99612.59;8348104;28;20045;-64
2022/04/22 06:24:29;;;;;;;21.88;12.48;;;;;;;12.24;82.93;99612.88;8331892;28;20033;-64
2022/04/22 06:28:29;;;;;;;24.65;13.52;;;;;;;12.56;81.14;99601.94;8363210;28;20049;-64
2022/04/22 06:32:29;;;;;;;23.20;12.63;;;;;;;12.58;79.87;99599.88;8349280;28;20069;-64
2022/04/22 06:36:32;;;;;;;23.35;12.65;;;;;;;12.58;79.95;99594.44;8344538;28;20065;-64
2022/04/22 06:45:53;;;;;;;23.27;12.82;;;;;;;12.67;79.62;99598.81;8348247;28;20060;-64
2022/04/22 06:49:13;;;;;;;21.30;12.73;;;;;;;12.98;78.45;99591.53;8357473;28;20045;-64
2022/04/22 06:53:16;;;;;;;19.42;11.65;;;;;;;13.02;77.56;99582.06;8357019;28;20326;-64
2022/04/22 06:57:19;;;;;;;18.65;10.77;;;;;;;13.71;75.39;99590.03;8339858;28;20036;-63
2022/04/22 07:01:20;;;;;;;21.10;12.68;;;;;;;13.45;74.75;99586.84;8349186;28;20168;-60
2022/04/22 07:05:20;;;;;;;22.05;12.32;;;;;;;13.51;74.71;99588.84;8331903;28;20493;-59
2022/04/22 07:09:21;;;;;;;24.17;12.70;;;;;;;13.84;74.32;99587.50;8345622;28;20045;-61
2022/04/22 07:13:22;;;;;;;21.55;12.38;;;;;;;13.69;74.42;99594.78;8339573;28;20092;-59
2022/04/22 07:17:22;;;;;;;21.77;11.73;;;;;;;13.79;73.27;99579.09;8326954;28;20045;-60
2022/04/22 07:21:24;;;;;;;19.60;11.30;;;;;;;13.73;73.48;99585.25;8325584;28;20268;-59
2022/04/22 07:25:25;;;;;;;23.63;13.30;;;;;;;14.05;73.33;99579.50;8338674;28;20076;-60
2022/04/22 07:29:27;;;;;;;22.70;12.20;;;;;;;14.15;72.45;99581.97;8350111;28;20033;-60
2022/04/22 07:33:27;;;;;;;20.80;11.32;;;;;;;14.26;72.33;99579.66;8345533;28;20045;-60
2022/04/22 07:37:28;;;;;;;17.13;11.18;;;;;;;14.57;71.83;99571.28;8343401;28;20379;-62
2022/04/22 07:41:30;;;;;;;20.75;12.90;;;;;;;14.28;72.53;99583.03;8352338;28;20304;-63
2022/04/22 07:46:48;;;;;;;19.45;12.25;;;;;;;13.86;74.23;99574.59;8351595;28;20508;-63
2022/04/22 07:49:52;;;;;;;21.40;12.65;;;;;;;13.87;74.68;99568.13;8335680;28;20041;-63
2022/04/22 07:53:55;;;;;;;22.25;12.77;;;;;;;14.02;73.97;99565.44;8348137;28;20025;-63
2022/04/22 07:57:57;;;;;;;22.92;13.45;;;;;;;14.04;73.49;99569.66;8355016;28;20507;-63
2022/04/22 08:01:59;;;;;;;22.35;12.90;;;;;;;13.93;75.12;99566.56;8351464;28;20029;-63
2022/04/22 08:05:59;;;;;;;21.27;12.15;;;;;;;14.11;74.93;99570.59;8335702;28;20037;-63
2022/04/22 08:09:59;;;;;;;20.02;12.60;;;;;;;14.77;75.93;99566.94;8352943;28;20045;-63
2022/04/22 08:14:00;;;;;;;17.20;11.50;;;;;;;15.16;70.91;99560.06;8348446;28;20045;-60
2022/04/22 08:18:01;;;;;;;16.40;11.00;;;;;;;15.31;68.87;99557.31;8338339;28;20140;-60
2022/04/22 08:22:02;;;;;;;19.25;10.75;;;;;;;15.16;69.49;99556.53;8341287;28;20061;-60
2022/04/22 08:26:04;;;;;;;18.83;12.18;;;;;;;14.80;69.91;99552.97;8329857;28;20107;-60
2022/04/22 08:30:06;;;;;;;21.40;10.73;;;;;;;15.11;70.49;99559.84;8339432;28;20572;-61
2022/04/22 08:34:06;;;;;;;15.13;10.45;;;;;;;15.53;68.77;99559.03;8332194;28;20044;-60
2022/04/22 08:38:07;;;;;;;16.60;10.27;;;;;;;15.22;68.67;99551.13;8330679;28;20120;-60
2022/04/22 08:42:11;;;;;;;16.50;10.13;;;;;;;15.12;69.33;99561.50;8334048;28;20456;-60
2022/04/22 08:49:58;;;;;;;19.43;11.27;;;;;;;15.30;67.81;99548.28;8340959;28;20040;-60
2022/04/22 08:50:33;;;;;;;19.13;11.70;;;;;;;15.73;68.92;99544.53;8347260;28;20720;-60
2022/04/22 08:54:35;;;;;;;16.60;10.48;;;;;;;16.31;68.17;99542.44;8331309;28;20434;-59
2022/04/22 08:58:36;;;;;;;14.82;9.73;;;;;;;16.32;65.14;99555.88;8333508;28;20037;-59
2022/04/22 09:02:37;;;;;;;15.73;10.52;;;;;;;15.75;66.04;99549.78;8333266;28;20052;-60
2022/04/22 09:06:37;;;;;;;18.27;10.13;;;;;;;15.85;66.94;99546.75;8349022;28;20481;-59
2022/04/22 09:10:40;;;;;;;15.05;9.63;;;;;;;15.85;66.42;99544.81;8348896;28;20045;-62
2022/04/22 09:14:49;;;;;;;20.10;10.50;;;;;;;15.47;67.95;99541.56;8350242;28;20041;-61
2022/04/22 09:19:05;;;;;;;22.33;11.15;;;;;;;15.15;68.60;99539.34;8351817;28;20051;-60
2022/04/22 09:23:30;;;;;;;26.00;11.35;;;;;;;15.18;68.79;99547.13;8351377;28;20075;-61
2022/04/22 09:27:34;;;;;;;43.60;16.08;;;;;;;15.27;68.76;99532.34;8349887;28;20036;-62
2022/04/22 09:31:51;;;;;;;74.05;23.48;;;;;;;15.37;68.05;99526.63;8354275;28;20813;-60
2022/04/22 09:45:06;;;;;;;14.35;8.98;;;;;;;16.82;63.45;99519.19;8330222;28;20041;-61
2022/04/22 09:49:09;;;;;;;16.33;8.93;;;;;;;18.15;59.40;99518.91;8348517;28;20400;-61
2022/04/22 09:53:11;;;;;;;11.27;7.10;;;;;;;17.64;58.27;99493.31;8350310;28;20809;-60
2022/04/22 09:57:12;;;;;;;12.25;8.23;;;;;;;16.41;60.99;99505.53;8348912;28;20037;-60
2022/04/22 10:01:12;;;;;;;10.75;7.40;;;;;;;16.19;62.53;99503.13;8349368;28;20352;-60
2022/04/22 10:05:13;;;;;;;10.35;7.63;;;;;;;16.09;62.63;99499.91;8333263;28;20041;-61
2022/04/22 10:09:14;;;;;;;9.93;6.95;;;;;;;16.25;61.70;99502.31;8322151;28;20037;-60
2022/04/22 10:13:17;;;;;;;11.00;7.60;;;;;;;16.25;61.39;99499.59;8332715;28;20440;-61
2022/04/22 10:17:19;;;;;;;10.25;6.57;;;;;;;16.41;62.78;99485.63;8332057;28;20048;-61
2022/04/22 10:21:19;;;;;;;10.27;6.97;;;;;;;16.76;60.29;99489.97;8323620;28;20048;-60
2022/04/22 10:25:20;;;;;;;8.90;7.05;;;;;;;16.77;60.11;99483.50;8339127;28;20053;-60
2022/04/22 10:29:21;;;;;;;9.07;6.68;;;;;;;16.79;58.22;99486.84;8340260;28;20051;-60
2022/04/22 10:33:27;;;;;;;11.77;8.40;;;;;;;16.64;58.83;99477.97;8340072;28;20032;-61
2022/04/22 10:37:33;;;;;;;10.32;6.57;;;;;;;17.25;59.33;99479.59;8345246;28;20052;-60
2022/04/22 10:41:46;;;;;;;9.30;6.68;;;;;;;19.59;54.68;99461.53;8344647;28;20036;-60
2022/04/22 10:47:18;;;;;;;9.32;7.05;;;;;;;20.83;51.15;99457.44;8347003;28;20036;-60
2022/04/22 10:59:24;;;;;;;9.93;6.95;;;;;;;22.98;46.35;99451.69;8417082;27;20125;-59
2022/04/22 11:03:29;;;;;;;8.23;7.35;;;;;;;22.89;46.14;99447.63;8374239;28;20063;-60
2022/04/22 11:12:04;;;;;;;8.75;7.30;;;;;;;22.12;46.54;99437.16;8424534;27;20594;-61
2022/04/22 11:16:27;;;;;;;12.13;8.15;;;;;;;21.38;48.46;99428.72;8406000;28;20040;-62
2022/04/22 11:20:27;;;;;;;10.68;7.93;;;;;;;21.89;46.78;99409.63;8413621;28;20047;-61
2022/04/22 11:24:30;;;;;;;8.52;6.90;;;;;;;21.60;45.80;99416.06;8418633;28;20068;-61
2022/04/22 11:28:35;;;;;;;9.20;7.65;;;;;;;20.11;49.54;99416.28;8420273;28;20033;-61
2022/04/22 11:32:40;;;;;;;17.55;8.65;;;;;;;19.51;49.93;99422.59;8415264;28;20059;-61
2022/04/22 11:36:44;;;;;;;12.63;8.02;;;;;;;20.70;49.62;99408.16;8416763;28;20108;-61
2022/04/22 11:40:49;;;;;;;10.73;7.03;;;;;;;22.29;47.71;99399.50;8417601;28;20172;-59
2022/04/22 11:45:09;;;;;;;10.40;7.68;;;;;;;22.71;45.16;99392.72;8413101;28;20089;-61
2022/04/22 11:49:09;;;;;;;9.77;7.63;;;;;;;20.54;48.10;99395.06;8418203;28;20123;-60
2022/04/22 11:53:29;;;;;;;9.75;7.03;;;;;;;19.49;51.31;99388.00;8416641;28;20097;-61
2022/04/22 11:57:37;;;;;;;11.50;8.27;;;;;;;18.63;52.20;99379.81;8413405;28;20147;-61
2022/04/22 12:05:58;;;;;;;12.00;8.25;;;;;;;17.98;53.25;99378.19;8415079;28;20071;-60
2022/04/22 12:10:01;;;;;;;8.43;7.40;;;;;;;17.82;54.76;99386.03;8417760;28;20044;-60
2022/04/22 12:14:01;;;;;;;9.85;7.70;;;;;;;18.02;53.76;99371.22;8415811;28;20175;-60
2022/04/22 12:18:02;;;;;;;10.37;7.27;;;;;;;18.35;54.74;99360.97;8414647;28;20040;-60
2022/04/22 12:22:04;;;;;;;12.48;8.20;;;;;;;18.35;52.62;99360.97;8402489;28;20295;-60
2022/04/22 12:26:05;;;;;;;11.90;7.45;;;;;;;18.22;53.35;99366.53;8389998;28;20040;-60
2022/04/22 12:30:09;;;;;;;9.50;7.75;;;;;;;18.35;54.62;99362.88;8396244;28;20041;-60
2022/04/22 12:34:13;;;;;;;7.32;6.30;;;;;;;18.83;54.30;99358.59;8413281;28;20031;-61
2022/04/22 12:38:14;;;;;;;11.87;7.77;;;;;;;18.62;54.35;99358.94;8401825;28;20028;-61
2022/04/22 12:52:22;;;;;;;11.00;7.50;;;;;;;18.42;53.84;99348.13;8394829;28;20044;-60
2022/04/22 12:55:12;;;;;;;8.43;6.97;;;;;;;18.29;54.52;99345.44;8387589;28;20263;-60
2022/04/22 12:59:13;;;;;;;9.95;7.25;;;;;;;18.25;54.09;99343.34;8391870;28;20060;-60
2022/04/22 13:03:13;;;;;;;8.68;7.50;;;;;;;18.44;54.66;99336.94;8379297;28;20152;-60
2022/04/22 13:07:13;;;;;;;8.98;6.93;;;;;;;18.70;53.00;99325.84;8377223;28;20040;-60
2022/04/22 13:11:14;;;;;;;10.88;7.50;;;;;;;18.59;52.79;99313.72;8380063;28;20225;-62
2022/04/22 13:15:18;;;;;;;9.48;7.35;;;;;;;18.95;53.03;99308.38;8376069;28;20591;-60
2022/04/22 13:19:18;;;;;;;10.47;7.57;;;;;;;18.86;54.09;99304.25;8369950;28;20098;-60
2022/04/22 13:23:19;;;;;;;10.75;7.50;;;;;;;18.88;53.74;99313.03;8377473;28;20316;-60
2022/04/22 13:27:19;;;;;;;12.07;8.02;;;;;;;18.53;54.17;99303.63;8373000;28;20037;-60
2022/04/22 13:31:20;;;;;;;13.00;6.60;;;;;;;18.45;53.51;99311.28;8376872;28;20509;-60
2022/04/22 13:35:21;;;;;;;11.90;7.88;;;;;;;18.42;52.95;99304.34;8384214;28;20244;-59
2022/04/22 13:39:21;;;;;;;8.18;7.03;;;;;;;18.62;53.28;99307.78;8384045;28;20048;-59
2022/04/22 13:43:21;;;;;;;9.60;7.70;;;;;;;18.50;52.13;99304.09;8379627;28;20052;-59
2022/04/22 13:52:43;;;;;;;10.70;7.25;;;;;;;18.74;52.66;99288.75;8374649;28;20273;-60
2022/04/22 13:56:03;;;;;;;9.55;8.10;;;;;;;18.70;51.30;99288.34;8369574;28;20040;-60
2022/04/22 14:00:04;;;;;;;11.73;7.18;;;;;;;18.80;51.28;99277.75;8360550;28;20056;-60
2022/04/22 14:04:04;;;;;;;9.40;6.55;;;;;;;19.17;50.79;99276.78;8360039;28;20080;-60
2022/04/22 14:08:05;;;;;;;8.25;6.18;;;;;;;19.31;51.01;99283.00;8357280;28;20427;-60
2022/04/22 14:12:06;;;;;;;8.13;5.93;;;;;;;19.10;51.82;99277.91;8356244;28;20045;-59
2022/04/22 14:16:07;;;;;;;6.28;5.05;;;;;;;18.93;51.20;99276.78;8359152;28;20036;-60
2022/04/22 14:20:08;;;;;;;7.45;6.57;;;;;;;18.71;52.66;99273.59;8366252;28;20051;-59
2022/04/22 14:24:09;;;;;;;8.60;5.68;;;;;;;18.71;53.63;99281.81;8361741;28;20552;-60
2022/04/22 14:28:09;;;;;;;7.47;5.93;;;;;;;18.77;54.28;99282.81;8363526;28;20469;-60
2022/04/22 14:32:10;;;;;;;9.20;6.10;;;;;;;18.95;55.07;99275.50;8369931;28;20376;-60
2022/04/22 14:36:12;;;;;;;9.23;6.50;;;;;;;18.99;55.74;99265.75;8365791;28;20124;-61
2022/04/22 14:40:12;;;;;;;11.25;7.35;;;;;;;18.75;57.35;99269.34;8362186;28;20067;-64
2022/04/22 14:44:16;;;;;;;10.35;6.55;;;;;;;18.49;59.19;99268.72;8357659;28;20053;-62
2022/04/22 14:48:16;;;;;;;10.27;7.20;;;;;;;18.58;58.43;99259.19;8346288;28;20044;-62
2022/04/22 14:52:18;;;;;;;12.37;7.03;;;;;;;18.36;58.27;99269.59;8357282;28;20561;-62
2022/04/22 14:56:20;;;;;;;9.30;7.28;;;;;;;18.32;58.57;99268.38;8355905;28;20320;-62
2022/04/22 15:00:20;;;;;;;9.13;6.93;;;;;;;18.26;58.49;99263.78;8366696;28;20098;-62
2022/04/22 15:04:21;;;;;;;8.35;6.75;;;;;;;18.27;59.15;99264.63;8366790;28;20314;-62
2022/04/22 15:08:22;;;;;;;12.10;6.65;;;;;;;18.50;58.86;99265.75;8347876;28;20064;-63
2022/04/22 15:12:23;;;;;;;11.80;6.38;;;;;;;18.30;58.71;99264.19;8355818;28;20091;-62
2022/04/22 15:16:27;;;;;;;9.68;6.80;;;;;;;18.03;59.93;99260.78;8366148;28;20417;-59
2022/04/22 15:24:48;;;;;;;13.27;6.53;;;;;;;18.00;60.88;99263.09;8348791;28;19927;-62
2022/04/22 15:28:48;;;;;;;7.28;6.00;;;;;;;17.98;61.01;99268.78;8347507;28;20045;-62
2022/04/22 15:32:48;;;;;;;6.78;5.80;;;;;;;17.92;60.76;99260.59;8348214;28;20154;-62
2022/04/22 15:36:49;;;;;;;7.57;6.30;;;;;;;17.92;60.02;99250.53;8346526;28;20274;-62
2022/04/22 15:40:49;;;;;;;7.63;6.20;;;;;;;17.75;60.89;99276.66;8349078;28;20726;-63
2022/04/22 15:44:50;;;;;;;8.00;5.53;;;;;;;17.77;60.30;99260.91;8352103;28;20048;-63
2022/04/22 15:48:50;;;;;;;12.02;5.68;;;;;;;17.85;59.20;99259.81;8368831;28;20048;-63
2022/04/22 15:52:51;;;;;;;7.60;5.97;;;;;;;18.02;59.91;99261.81;8347068;28;20045;-62
2022/04/22 15:56:52;;;;;;;8.00;5.75;;;;;;;18.19;59.69;99251.19;8368130;28;20559;-62
2022/04/22 16:00:52;;;;;;;7.50;5.70;;;;;;;18.45;58.71;99257.38;8350543;28;20041;-62
2022/04/22 16:04:52;;;;;;;14.90;5.70;;;;;;;18.27;58.61;99254.50;8354041;28;20044;-63
2022/04/22 16:08:53;;;;;;;7.45;6.00;;;;;;;18.08;58.05;99255.47;8352893;28;20651;-62
2022/04/22 16:17:14;;;;;;;6.78;5.57;;;;;;;17.89;58.07;99267.38;8356584;28;20502;-62
2022/04/22 16:21:15;;;;;;;8.00;5.60;;;;;;;17.82;59.53;99266.56;8355546;28;20559;-62
2022/04/22 16:25:18;;;;;;;6.68;5.97;;;;;;;17.78;59.60;99259.00;8348953;28;20532;-62
2022/04/22 16:29:19;;;;;;;11.05;6.25;;;;;;;17.82;58.39;99266.56;8351045;28;20037;-62
2022/04/22 16:33:20;;;;;;;12.13;6.82;;;;;;;17.81;57.76;99272.25;8352533;28;20048;-62
2022/04/22 16:37:21;;;;;;;9.50;7.13;;;;;;;17.75;58.00;99271.19;8355673;28;20432;-62
2022/04/22 16:41:22;;;;;;;7.25;6.13;;;;;;;17.65;58.58;99273.56;8350232;28;20045;-61
2022/04/22 16:45:22;;;;;;;13.38;7.05;;;;;;;17.63;58.36;99278.44;8350610;28;20045;-63
2022/04/22 16:49:24;;;;;;;10.15;6.55;;;;;;;17.64;58.26;99263.69;8346795;28;20045;-60
2022/04/22 16:53:25;;;;;;;10.93;6.95;;;;;;;17.57;58.26;99279.28;8345210;28;20080;-63
2022/04/22 16:57:25;;;;;;;10.05;7.25;;;;;;;17.54;58.86;99276.97;8361290;28;20049;-62
2022/04/22 17:01:27;;;;;;;14.40;7.57;;;;;;;17.50;59.66;99281.19;8357876;28;20036;-62
2022/04/22 17:05:27;;;;;;;11.35;8.38;;;;;;;17.43;59.84;99273.03;8351971;28;20369;-63
2022/04/22 17:09:28;;;;;;;12.55;8.20;;;;;;;17.38;59.51;99277.41;8346653;28;20283;-62
2022/04/22 17:13:28;;;;;;;11.38;8.35;;;;;;;17.22;60.25;99270.50;8346793;28;20375;-62
2022/04/22 17:22:49;;;;;;;17.50;8.43;;;;;;;17.16;59.24;99274.09;8342292;28;20106;-62
2022/04/22 17:26:14;;;;;;;15.98;8.45;;;;;;;17.11;59.32;99276.63;8342829;28;20078;-62
2022/04/22 17:30:15;;;;;;;12.55;8.65;;;;;;;17.17;59.42;99274.94;8359779;28;20045;-62
2022/04/22 17:34:16;;;;;;;11.65;8.70;;;;;;;17.16;59.36;99271.38;8350918;28;20047;-62
2022/04/22 17:38:16;;;;;;;11.80;8.90;;;;;;;17.24;59.19;99275.75;8352287;28;20048;-62
2022/04/22 17:42:17;;;;;;;13.03;9.00;;;;;;;17.23;59.25;99274.09;8351729;28;20767;-62
2022/04/22 17:46:17;;;;;;;11.75;9.15;;;;;;;17.18;59.04;99276.63;8350921;28;20275;-63
2022/04/22 17:50:17;;;;;;;11.27;9.32;;;;;;;17.14;58.93;99273.47;8352760;28;20060;-62
2022/04/22 17:54:19;;;;;;;13.00;9.32;;;;;;;17.04;59.00;99285.88;8348087;28;20433;-62
2022/04/22 17:58:19;;;;;;;13.02;8.98;;;;;;;16.83;60.41;99294.28;8354804;28;20268;-63
2022/04/22 18:02:21;;;;;;;14.63;9.50;;;;;;;16.67;60.62;99297.44;8355865;28;20063;-62
2022/04/22 18:06:22;;;;;;;13.38;9.35;;;;;;;16.52;61.36;99303.09;8350184;28;20049;-62
2022/04/22 18:10:23;;;;;;;12.38;10.23;;;;;;;16.53;61.01;99299.31;8347033;28;20044;-63
2022/04/22 18:18:47;;;;;;;13.27;10.23;;;;;;;16.33;61.70;99312.06;8348129;28;20045;-63
2022/04/22 18:22:47;;;;;;;14.05;10.20;;;;;;;16.33;61.64;99308.47;8345456;28;20102;-63
2022/04/22 18:26:48;;;;;;;12.10;9.80;;;;;;;16.28;61.93;99308.28;8359905;28;20055;-62
2022/04/22 18:30:49;;;;;;;17.48;11.55;;;;;;;16.06;62.96;99321.22;8345274;28;20083;-62
2022/04/22 18:34:50;;;;;;;16.00;10.68;;;;;;;15.94;63.12;99311.09;8351998;28;20411;-62
2022/04/22 18:38:50;;;;;;;15.98;11.45;;;;;;;15.91;63.36;99315.06;8360710;28;20045;-62
2022/04/22 18:42:52;;;;;;;15.40;11.25;;;;;;;15.86;63.56;99320.31;8348715;28;20037;-62
2022/04/22 18:46:52;;;;;;;14.90;11.65;;;;;;;15.83;63.43;99315.25;8348015;28;20221;-62
2022/04/22 18:50:52;;;;;;;13.03;10.70;;;;;;;15.73;63.89;99326.53;8349015;28;20040;-62
2022/04/22 18:54:53;;;;;;;18.63;11.98;;;;;;;15.61;64.15;99328.13;8361237;28;20295;-63
2022/04/22 18:58:53;;;;;;;15.80;12.25;;;;;;;15.57;64.23;99345.94;8341628;28;20409;-62
2022/04/22 19:03:25;;;;;;;16.27;11.52;;;;;;;15.45;64.89;99347.53;8343277;28;20080;-62
2022/04/22 19:07:14;;;;;;;15.95;11.82;;;;;;;15.35;65.48;99346.19;8343780;28;20052;-62
2022/04/22 19:11:14;;;;;;;17.67;11.23;;;;;;;15.29;65.60;99356.00;8364454;28;20048;-62
2022/04/22 19:15:15;;;;;;;16.80;11.52;;;;;;;15.29;65.76;99355.16;8344525;28;20581;-62
2022/04/22 19:19:15;;;;;;;17.35;11.63;;;;;;;15.22;65.90;99357.81;8345720;28;20040;-62
2022/04/22 19:23:16;;;;;;;20.37;11.53;;;;;;;15.07;66.53;99361.69;8341971;28;20798;-62
2022/04/22 19:27:16;;;;;;;17.23;11.38;;;;;;;15.00;66.77;99367.06;8342027;28;20274;-62
2022/04/22 19:31:17;;;;;;;18.85;13.18;;;;;;;15.07;66.55;99362.50;8342218;28;20060;-62
2022/04/22 19:35:17;;;;;;;17.15;12.90;;;;;;;15.10;66.23;99362.13;8340723;28;20033;-62
2022/04/22 19:40:49;;;;;;;26.92;13.50;;;;;;;15.03;66.67;99366.69;8343164;28;20102;-62
2022/04/22 19:43:39;;;;;;;16.83;12.15;;;;;;;15.03;66.33;99372.13;8333198;28;20041;-62
2022/04/22 19:47:39;;;;;;;17.17;12.23;;;;;;;15.01;66.37;99363.28;8339102;28;20148;-63
2022/04/22 19:51:40;;;;;;;14.50;11.57;;;;;;;15.06;65.99;99371.72;8334699;28;20599;-62
2022/04/22 19:55:42;;;;;;;17.92;11.68;;;;;;;15.06;65.82;99371.72;8350203;28;20450;-62
2022/04/22 19:59:42;;;;;;;17.85;12.63;;;;;;;14.93;66.91;99371.63;8335252;28;20052;-63
2022/04/22 20:03:43;;;;;;;13.68;10.90;;;;;;;14.91;66.69;99376.41;8350779;28;20048;-63